Time;durP1;ratioP1;P1;durP2;ratioP2;P2;SDS_P1;SDS_P2;PMS_P1;PMS_P2;Temp;Humidity;BMP_temperature;BMP_pressure;BME280_temperature;BME280_humidity;BME280_pressure;Samples;Min_cycle;Max_cycle;Signal;HPM_P1;HPM_P2
2022/10/21 00:00:59;;;;;;;16.25;9.73;;;;;;;11.58;93.00;100893.47;5127544;27;20054;-71
2022/10/21 00:03:26;;;;;;;14.38;9.85;;;;;;;11.74;91.29;100899.66;5126424;27;20043;-70
2022/10/21 00:05:54;;;;;;;13.75;9.40;;;;;;;11.89;90.45;100905.88;5126397;27;20047;-70
2022/10/21 00:08:21;;;;;;;14.88;9.32;;;;;;;12.34;88.36;100882.25;5129578;27;20521;-70
2022/10/21 00:10:50;;;;;;;16.92;10.07;;;;;;;12.37;87.86;100890.00;5127135;27;20043;-70
2022/10/21 00:13:18;;;;;;;16.33;9.77;;;;;;;12.40;86.94;100891.59;5125654;27;20047;-70
2022/10/21 00:15:45;;;;;;;16.80;9.70;;;;;;;12.18;88.06;100879.66;5127200;27;20039;-70
2022/10/21 00:18:11;;;;;;;16.27;9.38;;;;;;;12.40;86.35;100873.19;5126757;27;20050;-70
2022/10/21 00:20:40;;;;;;;16.90;9.55;;;;;;;12.38;87.21;100860.13;5126210;27;20039;-70
2022/10/21 00:23:06;;;;;;;16.00;10.05;;;;;;;12.18;87.58;100844.66;5125646;27;20410;-70
2022/10/21 00:25:32;;;;;;;18.55;10.23;;;;;;;11.89;89.84;100840.16;5126932;27;20418;-70
2022/10/21 00:27:59;;;;;;;17.98;9.77;;;;;;;11.58;92.16;100825.19;5125667;27;20051;-70
2022/10/21 00:30:27;;;;;;;15.07;8.73;;;;;;;11.71;91.21;100824.47;5116268;27;20043;-71
2022/10/21 00:32:53;;;;;;;15.25;9.80;;;;;;;11.51;91.86;100824.69;5123666;27;20520;-70
2022/10/21 00:35:20;;;;;;;15.07;9.65;;;;;;;11.59;92.38;100830.38;5126767;27;20050;-70
2022/10/21 00:37:46;;;;;;;12.77;8.75;;;;;;;11.80;91.12;100828.38;5126827;27;20482;-70
2022/10/21 00:40:12;;;;;;;15.30;9.45;;;;;;;11.83;90.00;100827.34;5125596;27;20104;-70
2022/10/21 00:42:41;;;;;;;17.42;9.82;;;;;;;11.96;89.75;100833.63;5126602;27;20084;-70
2022/10/21 00:45:22;;;;;;;15.38;9.38;;;;;;;12.03;88.83;100843.72;5127977;27;20061;-70
2022/10/21 00:47:53;;;;;;;17.27;10.43;;;;;;;11.65;91.02;100858.09;5124968;27;20082;-70
2022/10/21 00:50:28;;;;;;;16.92;10.50;;;;;;;11.37;93.46;100856.09;5127626;27;20043;-70
2022/10/21 00:52:57;;;;;;;15.98;9.95;;;;;;;11.14;95.23;100853.81;5127320;27;20042;-70
2022/10/21 00:55:26;;;;;;;15.40;9.10;;;;;;;11.53;93.41;100845.63;5125154;27;20046;-70
2022/10/21 00:57:53;;;;;;;15.75;9.73;;;;;;;11.61;92.40;100840.78;5120546;27;20043;-70
2022/10/21 01:00:19;;;;;;;16.05;10.00;;;;;;;11.65;92.51;100839.69;5127608;27;20047;-70
2022/10/21 01:02:46;;;;;;;16.73;9.45;;;;;;;11.73;91.94;100845.41;5126667;27;20043;-70
2022/10/21 01:05:15;;;;;;;15.55;9.68;;;;;;;11.58;92.07;100836.56;5125532;27;20413;-71
2022/10/21 01:07:41;;;;;;;14.63;9.50;;;;;;;11.44;93.69;100827.72;5128161;27;20111;-70
2022/10/21 01:10:08;;;;;;;16.17;9.70;;;;;;;11.52;93.08;100830.81;5127038;27;20035;-70
2022/10/21 01:12:43;;;;;;;19.17;10.07;;;;;;;11.71;91.24;100819.22;5122452;27;20047;-70
2022/10/21 01:15:17;;;;;;;13.48;7.30;;;;;;;11.55;92.54;100805.22;5127344;27;20043;-70
2022/10/21 01:17:50;;;;;;;12.95;8.95;;;;;;;11.50;92.57;100794.09;5126637;27;20545;-71
2022/10/21 01:20:44;;;;;;;16.10;9.27;;;;;;;11.64;92.79;100788.13;5127193;27;20490;-70
2022/10/21 01:23:34;;;;;;;14.07;8.98;;;;;;;11.75;91.40;100780.50;5126849;27;20096;-70
2022/10/21 01:26:19;;;;;;;17.00;9.07;;;;;;;12.05;89.77;100776.13;5114179;27;20108;-71
2022/10/21 01:29:00;;;;;;;17.42;9.20;;;;;;;12.20;88.68;100767.38;5104591;28;20055;-71
2022/10/21 01:31:32;;;;;;;18.02;9.32;;;;;;;12.50;87.57;100762.09;5104929;28;20048;-70
2022/10/21 01:34:03;;;;;;;14.50;8.05;;;;;;;12.99;84.50;100757.38;5123744;27;20046;-70
2022/10/21 01:36:37;;;;;;;12.25;8.02;;;;;;;13.19;83.65;100761.47;5126555;27;20401;-70
2022/10/21 01:39:16;;;;;;;14.35;8.82;;;;;;;13.14;83.81;100750.34;5125404;27;20055;-71
2022/10/21 01:41:48;;;;;;;18.45;9.40;;;;;;;13.54;81.77;100767.13;5129832;27;20054;-71
2022/10/21 01:44:21;;;;;;;13.15;8.18;;;;;;;12.92;83.94;100777.13;5129267;27;20031;-70
2022/10/21 01:46:56;;;;;;;15.02;8.88;;;;;;;12.50;86.11;100775.25;5129171;27;20070;-70
2022/10/21 01:49:29;;;;;;;21.58;9.60;;;;;;;12.57;87.04;100771.31;5128708;27;20677;-70
2022/10/21 01:51:56;;;;;;;19.15;8.88;;;;;;;12.49;87.91;100770.09;5109582;28;20491;-70
2022/10/21 01:54:26;;;;;;;17.98;9.18;;;;;;;12.11;89.24;100757.41;5126537;27;20247;-70
2022/10/21 01:56:55;;;;;;;14.68;9.55;;;;;;;12.08;90.18;100751.50;5123214;27;20039;-70
2022/10/21 01:59:24;;;;;;;16.92;9.20;;;;;;;12.15;89.81;100745.78;5128947;27;20058;-70
2022/10/21 02:01:54;;;;;;;15.52;9.60;;;;;;;11.93;90.81;100747.09;5129740;27;20046;-70
2022/10/21 02:04:23;;;;;;;16.80;9.45;;;;;;;12.37;88.40;100732.22;5130495;27;20047;-70
2022/10/21 02:06:49;;;;;;;12.65;8.82;;;;;;;12.42;87.50;100724.03;5129206;27;20058;-70
2022/10/21 02:09:16;;;;;;;12.68;8.70;;;;;;;12.33;88.38;100733.34;5129468;27;20047;-70
2022/10/21 02:11:46;;;;;;;12.77;8.35;;;;;;;12.35;88.57;100720.94;5129862;27;20053;-70
2022/10/21 02:14:19;;;;;;;13.07;8.50;;;;;;;12.91;85.22;100709.63;5130727;27;20058;-70
2022/10/21 02:16:47;;;;;;;13.98;8.55;;;;;;;12.64;85.52;100708.66;5128933;27;20487;-70
2022/10/21 02:19:18;;;;;;;11.98;7.97;;;;;;;12.73;85.27;100712.53;5128860;27;20718;-70
2022/10/21 02:21:46;;;;;;;13.38;8.15;;;;;;;12.86;84.65;100702.97;5129413;27;20061;-70
2022/10/21 02:24:19;;;;;;;11.13;8.05;;;;;;;13.04;83.08;100694.75;5130000;27;20047;-70
2022/10/21 02:26:45;;;;;;;16.73;8.63;;;;;;;12.76;84.80;100704.44;5122411;27;20050;-70
2022/10/21 02:29:13;;;;;;;12.25;8.30;;;;;;;12.23;87.34;100687.50;5108351;27;20044;-70
2022/10/21 02:31:52;;;;;;;12.65;8.05;;;;;;;12.35;87.75;100685.91;5111532;27;20073;-71
2022/10/21 02:34:29;;;;;;;10.13;7.75;;;;;;;12.44;86.98;100691.47;5122868;27;20039;-71
2022/10/21 02:37:02;;;;;;;11.15;8.13;;;;;;;12.61;85.28;100693.06;5121105;27;20479;-71
2022/10/21 02:39:34;;;;;;;11.43;7.35;;;;;;;12.62;84.75;100692.16;5130224;27;20050;-71
2022/10/21 02:42:04;;;;;;;11.23;7.50;;;;;;;12.40;86.25;100684.72;5127782;27;20042;-71
2022/10/21 02:44:30;;;;;;;14.10;8.25;;;;;;;12.09;87.54;100683.03;5128719;27;20295;-70
2022/10/21 02:46:57;;;;;;;12.13;7.60;;;;;;;12.04;88.20;100687.75;5130227;27;20039;-70
2022/10/21 02:49:25;;;;;;;11.60;7.82;;;;;;;12.00;88.17;100680.13;5123034;27;20047;-70
2022/10/21 02:51:51;;;;;;;12.48;7.88;;;;;;;11.96;88.98;100675.97;5129111;27;20092;-70
2022/10/21 02:54:18;;;;;;;13.98;7.72;;;;;;;12.02;88.27;100679.09;5130793;27;20055;-70
2022/10/21 02:56:44;;;;;;;12.25;7.03;;;;;;;11.48;90.13;100672.56;5128284;27;20039;-70
2022/10/21 02:59:11;;;;;;;17.73;7.78;;;;;;;11.68;90.08;100677.53;5128479;27;20039;-70
2022/10/21 03:01:37;;;;;;;12.90;7.20;;;;;;;11.71;89.41;100668.69;5129157;27;20126;-71
2022/10/21 03:04:04;;;;;;;14.13;7.75;;;;;;;11.73;88.48;100682.56;5127913;27;20046;-70
2022/10/21 03:06:32;;;;;;;12.98;7.25;;;;;;;11.76;87.85;100671.00;5128380;27;20055;-70
2022/10/21 03:08:58;;;;;;;14.55;7.43;;;;;;;11.76;87.49;100677.13;5129080;27;20097;-70
2022/10/21 03:11:24;;;;;;;12.73;7.20;;;;;;;11.48;88.42;100675.19;5127303;27;20058;-70
2022/10/21 03:13:51;;;;;;;10.98;7.10;;;;;;;11.43;88.79;100679.00;5125068;27;20091;-70
2022/10/21 03:16:17;;;;;;;13.43;7.55;;;;;;;11.64;88.76;100673.38;5128317;27;20491;-70
2022/10/21 03:18:44;;;;;;;9.98;7.07;;;;;;;11.61;88.11;100668.31;5128070;27;20482;-70
2022/10/21 03:21:10;;;;;;;11.60;7.63;;;;;;;11.89;87.14;100669.38;5128927;27;20047;-70
2022/10/21 03:23:38;;;;;;;11.75;6.88;;;;;;;11.63;87.62;100661.19;5128895;27;20042;-70
2022/10/21 03:26:05;;;;;;;10.73;6.90;;;;;;;11.95;87.28;100663.75;5127521;27;20047;-70
2022/10/21 03:28:31;;;;;;;12.63;7.43;;;;;;;11.99;85.94;100657.41;5128855;27;20046;-70
2022/10/21 03:30:57;;;;;;;11.23;7.35;;;;;;;12.08;85.58;100651.63;5128052;27;20055;-71
2022/10/21 03:33:24;;;;;;;10.63;7.00;;;;;;;12.28;84.24;100659.13;5127607;27;20504;-71
2022/10/21 03:35:50;;;;;;;12.13;7.30;;;;;;;12.39;83.96;100655.88;5127762;27;20047;-71
2022/10/21 03:38:17;;;;;;;10.27;6.70;;;;;;;12.65;81.89;100668.28;5127600;27;20043;-71
2022/10/21 03:40:44;;;;;;;10.55;7.15;;;;;;;12.67;82.15;100675.13;5124901;27;20117;-71
2022/10/21 03:43:11;;;;;;;11.85;7.07;;;;;;;12.57;82.22;100676.63;5127088;27;20046;-71
2022/10/21 03:45:37;;;;;;;9.43;6.93;;;;;;;12.62;81.84;100673.72;5127727;27;20047;-71
2022/10/21 03:48:04;;;;;;;15.45;7.93;;;;;;;12.48;83.09;100664.06;5128116;27;20074;-71
2022/10/21 03:50:30;;;;;;;14.30;7.05;;;;;;;12.71;81.56;100657.41;5126413;27;20047;-70
2022/10/21 03:52:58;;;;;;;12.45;7.18;;;;;;;13.02;81.11;100665.06;5128193;27;20055;-70
2022/10/21 03:55:24;;;;;;;11.43;7.30;;;;;;;12.89;80.74;100647.50;5127515;27;20043;-71
2022/10/21 03:57:53;;;;;;;13.05;6.80;;;;;;;13.20;79.38;100649.06;5127849;27;20043;-71
2022/10/21 04:00:19;;;;;;;12.23;7.15;;;;;;;12.57;81.63;100647.69;5127943;27;20071;-71
2022/10/21 04:02:46;;;;;;;12.43;7.65;;;;;;;12.91;80.16;100645.63;5126176;27;20436;-71
2022/10/21 04:05:13;;;;;;;13.93;6.95;;;;;;;12.40;81.40;100636.53;5137780;27;20049;-71
2022/10/21 04:07:39;;;;;;;9.43;7.03;;;;;;;12.55;81.46;100636.44;5148796;27;20051;-71
2022/10/21 04:10:08;;;;;;;13.40;8.25;;;;;;;12.75;80.62;100634.38;5128965;27;20043;-71
2022/10/21 04:12:34;;;;;;;12.02;6.93;;;;;;;12.88;80.07;100632.66;5127733;27;20047;-71
2022/10/21 04:15:03;;;;;;;12.73;7.40;;;;;;;13.10;78.54;100628.59;5128731;27;20046;-71
2022/10/21 04:17:30;;;;;;;9.30;6.45;;;;;;;13.00;79.05;100624.84;5125634;27;20066;-71
2022/10/21 04:19:56;;;;;;;13.65;6.85;;;;;;;12.93;79.15;100620.91;5125742;27;20517;-71
2022/10/21 04:22:22;;;;;;;11.02;7.90;;;;;;;13.07;78.42;100615.63;5121827;27;20056;-70
2022/10/21 04:24:49;;;;;;;11.77;7.40;;;;;;;13.33;77.04;100619.22;5125464;27;20051;-70
2022/10/21 04:27:15;;;;;;;14.45;8.45;;;;;;;13.08;78.02;100619.91;5125278;27;20085;-70
2022/10/21 04:29:42;;;;;;;15.10;7.82;;;;;;;12.87;79.06;100616.00;5126748;27;20051;-70
2022/10/21 04:32:10;;;;;;;15.50;8.25;;;;;;;12.88;79.30;100601.06;5126695;27;20050;-70
2022/10/21 04:34:36;;;;;;;14.27;7.88;;;;;;;12.91;78.81;100590.34;5126114;27;20138;-71
2022/10/21 04:37:03;;;;;;;14.75;8.05;;;;;;;13.03;78.63;100594.84;5128092;27;20047;-71
2022/10/21 04:39:29;;;;;;;19.33;8.90;;;;;;;12.97;78.78;100597.88;5126504;27;20047;-70
2022/10/21 04:41:56;;;;;;;18.42;9.05;;;;;;;13.08;78.04;100592.78;5126417;27;20115;-70
2022/10/21 04:44:22;;;;;;;16.58;8.98;;;;;;;13.32;77.82;100582.44;5125536;27;20516;-70
2022/10/21 04:46:49;;;;;;;15.65;7.95;;;;;;;12.85;78.32;100585.50;5119158;27;20039;-71
2022/10/21 04:49:17;;;;;;;14.43;8.90;;;;;;;12.71;80.19;100594.25;5126090;27;20043;-70
2022/10/21 04:51:43;;;;;;;11.52;7.40;;;;;;;13.13;78.78;100596.81;5126019;27;20052;-70
2022/10/21 04:54:12;;;;;;;13.10;7.38;;;;;;;13.57;76.53;100579.88;5125642;27;20043;-70
2022/10/21 04:56:38;;;;;;;12.63;7.85;;;;;;;13.06;78.79;100584.09;5126132;27;20410;-70
2022/10/21 04:59:05;;;;;;;15.65;7.78;;;;;;;12.91;80.15;100590.34;5127447;27;20051;-70
2022/10/21 05:01:31;;;;;;;13.68;7.72;;;;;;;12.85;80.21;100590.75;5125918;27;20047;-70
2022/10/21 05:03:58;;;;;;;13.00;7.00;;;;;;;12.18;82.79;100587.03;5127607;27;20411;-70
2022/10/21 05:06:25;;;;;;;13.43;7.50;;;;;;;12.49;82.40;100578.13;5126869;27;20627;-71
2022/10/21 05:08:52;;;;;;;12.27;7.47;;;;;;;13.06;80.54;100573.56;5121047;27;20550;-71
2022/10/21 05:11:18;;;;;;;12.00;7.25;;;;;;;12.84;80.35;100566.22;5127512;27;20620;-71
2022/10/21 05:13:45;;;;;;;11.25;7.57;;;;;;;12.66;81.94;100555.09;5126614;27;20043;-70
2022/10/21 05:16:12;;;;;;;11.25;6.88;;;;;;;12.03;84.20;100548.53;5128920;27;20092;-70
2022/10/21 05:18:38;;;;;;;13.88;7.95;;;;;;;12.10;84.38;100549.84;5131117;27;20490;-70
2022/10/21 05:21:05;;;;;;;10.82;7.18;;;;;;;12.54;82.55;100542.69;5128836;27;20047;-70
2022/10/21 05:23:33;;;;;;;17.17;8.40;;;;;;;12.30;83.28;100528.47;5129589;27;20046;-70
2022/10/21 05:25:59;;;;;;;11.73;7.95;;;;;;;12.46;82.90;100537.06;5131629;27;20043;-70
2022/10/21 05:28:26;;;;;;;11.85;6.80;;;;;;;12.33;83.53;100535.31;5129205;27;20406;-70
2022/10/21 05:30:53;;;;;;;15.73;7.45;;;;;;;12.48;83.01;100534.34;5130503;27;20109;-70
2022/10/21 05:33:19;;;;;;;13.65;7.40;;;;;;;12.63;82.14;100538.66;5131535;27;20539;-70
2022/10/21 05:35:55;;;;;;;13.05;6.75;;;;;;;12.85;81.62;100524.97;5149159;27;20051;-70
2022/10/21 05:38:21;;;;;;;11.77;7.30;;;;;;;12.65;82.32;100532.34;5146549;27;20043;-70
2022/10/21 05:40:49;;;;;;;10.73;7.47;;;;;;;12.69;82.59;100532.97;5129637;27;20096;-70
2022/10/21 05:43:15;;;;;;;13.95;7.78;;;;;;;12.61;82.20;100533.47;5129201;27;20125;-70
2022/10/21 05:45:42;;;;;;;9.15;6.78;;;;;;;12.75;82.26;100524.69;5128816;27;20668;-70
2022/10/21 05:48:08;;;;;;;14.38;7.80;;;;;;;12.64;81.69;100533.28;5129129;27;20494;-67
2022/10/21 05:50:35;;;;;;;10.13;7.15;;;;;;;12.67;82.31;100529.63;5129290;27;20043;-66
2022/10/21 05:53:01;;;;;;;11.15;7.55;;;;;;;12.78;81.55;100531.56;5122749;27;20107;-66
2022/10/21 05:55:28;;;;;;;10.40;7.50;;;;;;;12.74;81.97;100528.28;5128263;27;20525;-66
2022/10/21 05:57:55;;;;;;;13.02;7.40;;;;;;;13.21;79.52;100519.97;5130660;27;20047;-66
2022/10/21 06:00:22;;;;;;;11.52;7.82;;;;;;;13.35;78.79;100525.16;5129676;27;20039;-66
2022/10/21 06:02:48;;;;;;;13.07;7.70;;;;;;;13.24;79.13;100524.16;5128643;27;20047;-66
2022/10/21 06:05:15;;;;;;;15.52;8.27;;;;;;;13.25;79.65;100526.72;5130043;27;20055;-64
2022/10/21 06:07:41;;;;;;;12.98;7.75;;;;;;;13.29;81.15;100532.63;5129301;27;20437;-64
2022/10/21 06:10:10;;;;;;;15.00;7.97;;;;;;;13.10;82.88;100546.16;5131007;27;20047;-64
2022/10/21 06:12:37;;;;;;;12.25;8.10;;;;;;;13.35;82.84;100538.31;5129132;27;20043;-64
2022/10/21 06:15:05;;;;;;;12.85;8.02;;;;;;;13.52;82.27;100532.78;5130017;27;20054;-64
2022/10/21 06:17:32;;;;;;;12.73;8.07;;;;;;;13.16;84.12;100538.69;5128341;27;20043;-65
2022/10/21 06:19:59;;;;;;;12.45;8.13;;;;;;;13.21;84.59;100537.53;5128932;27;20055;-64
2022/10/21 06:22:25;;;;;;;19.73;9.13;;;;;;;12.62;87.92;100552.72;5126835;27;20047;-64
2022/10/21 06:24:52;;;;;;;13.82;8.82;;;;;;;12.95;87.51;100555.00;5130306;27;20039;-64
2022/10/21 06:27:18;;;;;;;13.90;8.82;;;;;;;12.83;88.87;100550.50;5125882;27;20047;-64
2022/10/21 06:29:45;;;;;;;17.15;9.65;;;;;;;12.69;89.49;100549.63;5122154;27;20054;-64
2022/10/21 06:32:13;;;;;;;13.05;9.15;;;;;;;12.90;88.45;100547.41;5122745;27;20039;-64
2022/10/21 06:34:39;;;;;;;12.77;8.77;;;;;;;13.35;86.40;100546.22;5127147;27;20043;-64
2022/10/21 06:37:06;;;;;;;12.88;8.60;;;;;;;12.20;91.72;100546.56;5128267;27;20054;-64
2022/10/21 06:39:32;;;;;;;14.98;9.00;;;;;;;12.48;92.18;100553.59;5129391;27;20046;-64
2022/10/21 06:41:59;;;;;;;17.48;9.63;;;;;;;12.39;92.69;100554.16;5129550;27;20559;-64
2022/10/21 06:44:25;;;;;;;17.83;10.23;;;;;;;12.57;92.11;100565.31;5118685;27;20104;-64
2022/10/21 06:46:52;;;;;;;14.23;10.02;;;;;;;12.33;93.53;100561.59;5116044;27;20047;-64
2022/10/21 06:49:20;;;;;;;20.65;10.35;;;;;;;12.37;92.90;100565.72;5127373;27;20047;-63
2022/10/21 06:51:47;;;;;;;17.90;10.70;;;;;;;12.05;95.26;100562.41;5128095;27;20047;-63
2022/10/21 06:54:13;;;;;;;16.33;9.60;;;;;;;11.92;95.85;100570.22;5128969;27;20054;-63
2022/10/21 06:56:40;;;;;;;16.70;9.95;;;;;;;11.80;96.29;100570.94;5127754;27;20051;-63
2022/10/21 06:59:06;;;;;;;13.35;9.85;;;;;;;12.03;95.28;100570.41;5127176;27;20039;-64
2022/10/21 07:01:33;;;;;;;14.57;9.18;;;;;;;12.19;95.53;100565.91;5125475;27;20047;-64
2022/10/21 07:03:59;;;;;;;16.45;8.95;;;;;;;12.45;92.68;100572.19;5127068;27;20418;-64
2022/10/21 07:06:27;;;;;;;18.75;10.20;;;;;;;12.32;93.60;100576.53;5128847;27;20134;-64
2022/10/21 07:08:54;;;;;;;13.85;9.35;;;;;;;12.99;91.14;100570.50;5128563;27;20051;-64
2022/10/21 07:11:21;;;;;;;18.13;9.98;;;;;;;12.90;90.68;100570.22;5127589;27;20383;-64
2022/10/21 07:13:47;;;;;;;14.25;8.93;;;;;;;13.19;89.05;100566.63;5127920;27;20088;-64
2022/10/21 07:16:17;;;;;;;15.38;9.80;;;;;;;13.33;88.84;100556.03;5129007;27;20054;-65
2022/10/21 07:18:44;;;;;;;14.60;9.10;;;;;;;13.05;89.81;100564.84;5128517;27;20069;-65
2022/10/21 07:21:14;;;;;;;15.80;9.30;;;;;;;12.91;92.05;100558.78;5127283;27;20490;-65
2022/10/21 07:23:43;;;;;;;17.73;8.85;;;;;;;13.13;90.33;100574.91;5127060;27;20100;-65
2022/10/21 07:26:10;;;;;;;14.50;9.70;;;;;;;13.24;90.19;100585.59;5128973;27;20414;-65
2022/10/21 07:28:37;;;;;;;13.60;9.70;;;;;;;13.27;88.85;100582.75;5127735;27;20054;-65
2022/10/21 07:31:04;;;;;;;13.95;9.07;;;;;;;12.99;90.73;100593.34;5127282;27;20047;-65
2022/10/21 07:33:31;;;;;;;15.82;8.90;;;;;;;12.97;91.10;100589.97;5126478;27;20482;-65
2022/10/21 07:36:03;;;;;;;13.32;9.10;;;;;;;13.29;89.32;100572.97;5127335;27;20039;-65
2022/10/21 07:38:30;;;;;;;;;;;;;;;13.52;88.34;100556.50;5127281;27;20452;-65
2022/10/21 07:40:58;;;;;;;12.80;8.80;;;;;;;13.71;86.78;100563.19;5136249;27;19919;-65
2022/10/21 07:43:24;;;;;;;17.40;9.40;;;;;;;13.48;88.18;100555.03;5126667;27;20168;-65
2022/10/21 07:45:51;;;;;;;17.90;8.90;;;;;;;13.63;88.02;100569.78;5128344;27;20478;-65
2022/10/21 07:48:18;;;;;;;13.30;9.27;;;;;;;13.71;87.96;100561.34;5128594;27;20047;-65
2022/10/21 07:50:44;;;;;;;16.38;9.50;;;;;;;13.79;88.07;100552.94;5127456;27;20600;-65
2022/10/21 07:53:11;;;;;;;19.17;8.93;;;;;;;13.24;89.98;100572.41;5126921;27;20043;-65
2022/10/21 07:55:37;;;;;;;14.93;10.18;;;;;;;13.39;89.74;100571.41;5127722;27;20047;-66
2022/10/21 07:58:05;;;;;;;14.10;9.48;;;;;;;13.10;91.76;100581.22;5126908;27;20047;-65
2022/10/21 08:00:31;;;;;;;18.95;9.63;;;;;;;13.57;89.16;100559.66;5127651;27;20262;-65
2022/10/21 08:02:58;;;;;;;16.80;9.05;;;;;;;13.65;88.32;100562.63;5127656;27;20474;-65
2022/10/21 08:05:25;;;;;;;13.38;8.60;;;;;;;13.85;86.52;100569.19;5127569;27;20051;-65
2022/10/21 08:07:51;;;;;;;13.45;9.68;;;;;;;13.89;87.09;100569.84;5126989;27;20047;-66
2022/10/21 08:10:18;;;;;;;13.75;8.27;;;;;;;14.32;84.93;100565.91;5127922;27;20042;-66
2022/10/21 08:12:44;;;;;;;14.73;8.10;;;;;;;15.07;81.15;100572.00;5126205;27;20058;-66
2022/10/21 08:15:12;;;;;;;13.38;7.63;;;;;;;15.12;80.01;100564.56;5123509;27;20047;-67
2022/10/21 08:17:39;;;;;;;16.70;9.10;;;;;;;15.85;79.75;100559.13;5126605;27;20534;-66
2022/10/21 08:20:06;;;;;;;13.25;8.23;;;;;;;16.57;78.15;100557.88;5126068;27;20050;-66
2022/10/21 08:22:33;;;;;;;11.88;8.23;;;;;;;17.25;76.82;100544.34;5124579;27;20050;-66
2022/10/21 08:24:59;;;;;;;11.00;7.57;;;;;;;17.75;73.37;100548.09;5126882;27;20059;-66
2022/10/21 08:27:25;;;;;;;10.60;7.60;;;;;;;17.98;70.07;100544.34;5125078;27;20054;-66
2022/10/21 08:29:52;;;;;;;9.20;6.82;;;;;;;17.77;68.85;100543.53;5127047;27;20043;-65
2022/10/21 08:32:20;;;;;;;10.38;6.93;;;;;;;17.75;71.56;100549.91;5123373;27;20043;-65
2022/10/21 08:34:46;;;;;;;12.52;7.70;;;;;;;17.75;70.85;100532.19;5110984;27;20050;-66
2022/10/21 08:37:12;;;;;;;12.05;6.90;;;;;;;17.79;68.47;100540.72;5078013;27;20495;-66
2022/10/21 08:39:39;;;;;;;11.57;7.15;;;;;;;17.75;68.01;100526.88;5126654;27;20050;-67
2022/10/21 08:42:10;;;;;;;15.88;7.50;;;;;;;16.99;71.64;100535.03;5117449;27;20100;-68
2022/10/21 08:44:46;;;;;;;12.07;7.43;;;;;;;17.47;71.17;100531.00;5092104;27;20043;-67
2022/10/21 08:47:29;;;;;;;9.93;6.90;;;;;;;17.64;68.10;100528.75;5105965;27;20039;-67
2022/10/21 08:50:00;;;;;;;11.95;7.10;;;;;;;18.82;65.37;100524.56;5097277;27;20047;-67
2022/10/21 08:52:36;;;;;;;11.60;6.70;;;;;;;18.49;64.51;100527.53;5108322;27;20499;-67
2022/10/21 08:55:05;;;;;;;12.38;7.95;;;;;;;19.17;65.22;100524.06;5096775;27;20055;-67
2022/10/21 08:57:34;;;;;;;11.68;7.95;;;;;;;20.47;60.59;100526.09;5108438;27;20058;-67
2022/10/21 09:00:02;;;;;;;10.57;6.90;;;;;;;20.53;60.15;100526.31;5098941;27;20437;-68
2022/10/21 09:02:38;;;;;;;8.90;7.03;;;;;;;21.05;57.97;100532.72;5102867;27;20521;-68
2022/10/21 09:05:19;;;;;;;8.68;5.90;;;;;;;20.05;58.76;100522.97;5112207;27;20521;-68
2022/10/21 09:07:53;;;;;;;12.02;6.13;;;;;;;19.33;63.33;100513.69;5098054;27;20051;-68
2022/10/21 09:10:29;;;;;;;13.60;6.78;;;;;;;19.78;60.70;100513.94;5106792;27;20065;-68
2022/10/21 09:13:03;;;;;;;8.30;6.22;;;;;;;20.24;60.44;100518.44;5099031;27;20047;-69
2022/10/21 09:15:37;;;;;;;10.52;6.65;;;;;;;20.19;58.74;100520.69;5105728;27;20047;-69
2022/10/21 09:18:25;;;;;;;8.38;5.70;;;;;;;20.50;58.01;100520.44;5087406;27;20040;-68
2022/10/21 09:20:58;;;;;;;11.07;6.22;;;;;;;20.43;59.54;100520.22;5107633;27;20081;-68
2022/10/21 09:24:03;;;;;;;12.55;6.10;;;;;;;20.38;58.06;100512.66;5098188;27;20047;-68
2022/10/21 09:26:37;;;;;;;10.75;6.43;;;;;;;19.71;60.14;100506.69;5095901;27;20054;-68
2022/10/21 09:29:18;;;;;;;10.45;5.97;;;;;;;20.60;59.51;100511.41;5106931;27;20494;-69
2022/10/21 09:31:45;;;;;;;11.23;5.63;;;;;;;19.89;59.76;100500.47;5098419;27;20051;-68
2022/10/21 09:34:20;;;;;;;10.52;5.88;;;;;;;20.17;59.61;100495.22;5104370;27;20105;-68
2022/10/21 09:36:49;;;;;;;9.45;5.70;;;;;;;20.42;59.25;100513.19;5107977;27;20043;-68
2022/10/21 09:39:21;;;;;;;9.80;5.93;;;;;;;20.42;59.59;100513.19;5108857;27;20042;-68
2022/10/21 09:41:53;;;;;;;15.02;6.32;;;;;;;21.04;58.64;100515.06;5109406;27;20035;-68
2022/10/21 09:44:22;;;;;;;7.68;6.00;;;;;;;20.50;59.07;100520.44;5096773;27;20866;-68
2022/10/21 09:46:51;;;;;;;9.07;5.88;;;;;;;19.29;61.59;100522.09;5108575;27;20035;-68
2022/10/21 09:49:27;;;;;;;11.43;6.93;;;;;;;19.16;62.36;100517.06;5107965;27;20036;-68
2022/10/21 09:51:54;;;;;;;9.98;6.40;;;;;;;19.18;61.66;100507.13;5098513;27;20043;-68
2022/10/21 09:54:24;;;;;;;10.65;6.78;;;;;;;18.42;64.98;100506.00;5106491;27;20044;-68
2022/10/21 09:56:58;;;;;;;11.07;6.70;;;;;;;18.84;65.61;100513.81;5100087;27;20054;-68
2022/10/21 09:59:25;;;;;;;8.43;6.25;;;;;;;18.84;64.69;100501.38;5107189;27;20054;-68
2022/10/21 10:01:52;;;;;;;10.73;6.35;;;;;;;19.16;64.55;100505.59;5107487;27;20228;-68
2022/10/21 10:04:25;;;;;;;8.65;5.97;;;;;;;19.96;63.34;100506.06;5101581;27;20051;-69
2022/10/21 10:06:52;;;;;;;9.40;6.25;;;;;;;19.68;60.60;100512.28;5109986;27;20043;-69
2022/10/21 10:09:26;;;;;;;11.45;6.72;;;;;;;19.91;62.86;100508.31;5111793;27;20039;-69
2022/10/21 10:11:55;;;;;;;9.73;6.07;;;;;;;19.92;61.77;100507.31;5097268;27;20100;-69
2022/10/21 10:14:33;;;;;;;8.10;5.57;;;;;;;18.98;62.69;100508.09;5110505;27;20066;-69
2022/10/21 10:17:25;;;;;;;10.68;6.18;;;;;;;18.82;64.49;100503.31;5099000;27;20471;-70
2022/10/21 10:20:18;;;;;;;9.45;6.53;;;;;;;19.46;64.23;100494.00;5122032;27;20472;-70
2022/10/21 10:22:46;;;;;;;8.20;5.32;;;;;;;19.54;62.86;100502.94;5091883;27;20043;-70
2022/10/21 10:25:23;;;;;;;9.10;6.18;;;;;;;19.26;64.05;100496.63;5110537;27;20126;-70
2022/10/21 10:27:51;;;;;;;10.88;6.65;;;;;;;19.55;63.51;100496.63;5109979;27;20046;-70
2022/10/21 10:30:18;;;;;;;8.55;6.35;;;;;;;19.34;63.72;100496.75;5110985;27;20043;-70
2022/10/21 10:32:46;;;;;;;9.20;6.03;;;;;;;19.23;65.53;100488.09;5099984;27;20043;-70
2022/10/21 10:35:25;;;;;;;8.45;5.65;;;;;;;19.05;64.19;100495.09;5109757;27;20039;-70
2022/10/21 10:37:53;;;;;;;11.43;6.50;;;;;;;18.67;64.56;100493.22;5100918;27;20455;-70
2022/10/21 10:40:24;;;;;;;10.13;5.97;;;;;;;18.37;65.46;100489.63;5122784;27;20427;-68
2022/10/21 10:42:58;;;;;;;13.13;6.70;;;;;;;18.36;66.43;100492.41;5109475;27;20130;-68
2022/10/21 10:45:24;;;;;;;10.45;6.72;;;;;;;17.89;68.50;100493.88;5099031;27;20427;-68
2022/10/21 10:47:55;;;;;;;12.80;6.32;;;;;;;18.05;68.24;100496.91;5108557;27;20054;-68
2022/10/21 10:50:46;;;;;;;9.52;6.35;;;;;;;18.20;69.80;100500.88;5110440;27;20409;-68
2022/10/21 10:53:27;;;;;;;11.50;6.38;;;;;;;18.25;69.31;100496.03;5106618;27;20112;-68
2022/10/21 10:56:01;;;;;;;14.10;7.15;;;;;;;18.71;66.81;100502.59;5091911;27;20054;-68
2022/10/21 10:58:31;;;;;;;13.52;7.50;;;;;;;18.53;68.20;100496.25;5108459;27;20055;-68
2022/10/21 11:01:02;;;;;;;10.43;7.05;;;;;;;18.10;68.33;100497.34;5099132;27;20437;-68
2022/10/21 11:03:37;;;;;;;11.80;6.93;;;;;;;17.85;69.88;100495.94;5110546;27;20047;-68
2022/10/21 11:06:13;;;;;;;10.07;6.18;;;;;;;17.82;69.45;100484.75;5110343;27;20043;-68
2022/10/21 11:08:43;;;;;;;11.45;6.85;;;;;;;17.53;69.66;100476.63;5106896;27;20066;-68
2022/10/21 11:11:14;;;;;;;17.23;7.13;;;;;;;17.07;72.07;100476.16;5110304;27;20043;-68
2022/10/21 11:13:41;;;;;;;14.32;7.30;;;;;;;16.70;72.53;100486.25;5099243;27;20502;-68
2022/10/21 11:16:24;;;;;;;12.32;7.13;;;;;;;17.15;72.81;100478.97;5109177;27;20043;-68
2022/10/21 11:18:59;;;;;;;14.63;7.22;;;;;;;17.15;71.90;100476.31;5100032;27;20042;-68
2022/10/21 11:21:44;;;;;;;12.82;7.40;;;;;;;17.40;71.11;100476.81;5108938;27;20039;-67
2022/10/21 11:24:34;;;;;;;10.27;6.63;;;;;;;17.87;68.78;100474.63;5098750;27;20523;-68
2022/10/21 11:27:07;;;;;;;11.05;6.75;;;;;;;17.55;70.59;100472.03;5102754;27;20039;-68